Terminal Aerodrome Forecast
Issued by NWS Mt. Holly, NJ

Home | Current Version | Previous Version | Text Only | Print | Product List | Glossary On
Versions: 1 2 3 4 5 6 7 8 9 10 11 12 13 14 15 16 17 18
000
FTUS41 KPHI 280522
TAFILG
TAF
KILG 280522Z 2806/2906 19005KT P6SM FEW200
      TEMPO 2808/2811 3SM BR BKN025
     FM281400 22008KT P6SM FEW050 SCT200
     FM281800 23010KT P6SM BKN050
     FM290300 33005KT P6SM FEW200=

USA.gov is the U.S. government's official web portal to all federal, state and local government web resources and services.